KUIL/UIL METAR and TAF weather

Enter ICAO airport designator
Station Type Date Time Source
KUIL METAR 2019/02/20 07:27 UTC NOAA

KUIL 200727Z AUTO 00000KT 5SM -RA BKN021 BKN030 BKN039 03/M02 A2986 RMK AO2 RAB0658 P0001 T00281022


Station Type Date Time Source
KUIL Decoded METAR 2019/02/20 07:27 UTC NOAA

QUILLAYUTE STATE AIRPORT, WA, United States (KUIL) 47-56N 124-34W 54M
Feb 20, 2019 - 02:27 AM EST / 2019.02.20 0727 UTC
Wind: Calm:0
Visibility: 5 mile(s):0
Sky conditions: mostly cloudy
Weather: light rain
Precipitation last hour: 0.01 inches
Temperature: 37.0 F (2.8 C)
Dew Point: 28.0 F (-2.2 C)
Relative Humidity: 69%
Pressure (altimeter): 29.86 in. Hg (1011 hPa)
ob: KUIL 200727Z AUTO 00000KT 5SM -RA BKN021 BKN030 BKN039 03/M02 A2986 RMK AO2 RAB0658 P0001 T00281022
cycle: 7

Station Type Date Time Source
KUIL TAF UTC NOAA

Error!


Example: see airport list